sensor_id;sensor_type;location;lat;lon;timestamp;P1;durP1;ratioP1;P2;durP2;ratioP2
20653;SDS011;21083;50.898;4.902;2023-04-03T00:00:39;9.98;;;4.50;;
20653;SDS011;21083;50.898;4.902;2023-04-03T00:03:06;12.82;;;5.47;;
20653;SDS011;21083;50.898;4.902;2023-04-03T00:05:34;12.00;;;4.88;;
20653;SDS011;21083;50.898;4.902;2023-04-03T00:08:01;11.43;;;5.30;;
20653;SDS011;21083;50.898;4.902;2023-04-03T00:10:32;13.75;;;4.88;;
20653;SDS011;21083;50.898;4.902;2023-04-03T00:12:59;11.25;;;4.38;;
20653;SDS011;21083;50.898;4.902;2023-04-03T00:15:28;9.75;;;4.45;;
20653;SDS011;21083;50.898;4.902;2023-04-03T00:17:55;13.00;;;4.90;;
20653;SDS011;21083;50.898;4.902;2023-04-03T00:20:22;9.52;;;4.47;;
20653;SDS011;21083;50.898;4.902;2023-04-03T00:22:49;8.43;;;4.47;;
20653;SDS011;21083;50.898;4.902;2023-04-03T00:25:16;11.30;;;5.07;;
20653;SDS011;21083;50.898;4.902;2023-04-03T00:27:43;10.70;;;4.82;;
20653;SDS011;21083;50.898;4.902;2023-04-03T00:30:11;12.25;;;4.65;;
20653;SDS011;21083;50.898;4.902;2023-04-03T00:32:41;10.82;;;4.47;;
20653;SDS011;21083;50.898;4.902;2023-04-03T00:35:08;12.80;;;4.88;;
20653;SDS011;21083;50.898;4.902;2023-04-03T00:37:36;11.35;;;5.13;;
20653;SDS011;21083;50.898;4.902;2023-04-03T00:40:03;8.75;;;4.68;;
20653;SDS011;21083;50.898;4.902;2023-04-03T00:42:31;12.40;;;4.95;;
20653;SDS011;21083;50.898;4.902;2023-04-03T00:48:04;14.07;;;5.18;;
20653;SDS011;21083;50.898;4.902;2023-04-03T00:50:34;15.45;;;4.53;;
20653;SDS011;21083;50.898;4.902;2023-04-03T00:53:04;11.98;;;5.22;;
20653;SDS011;21083;50.898;4.902;2023-04-03T00:55:32;11.02;;;4.95;;
20653;SDS011;21083;50.898;4.902;2023-04-03T00:58:01;11.38;;;5.40;;
20653;SDS011;21083;50.898;4.902;2023-04-03T01:00:29;11.60;;;5.30;;
20653;SDS011;21083;50.898;4.902;2023-04-03T01:02:56;15.40;;;5.40;;
20653;SDS011;21083;50.898;4.902;2023-04-03T01:05:24;11.40;;;5.50;;
20653;SDS011;21083;50.898;4.902;2023-04-03T01:07:51;12.23;;;5.38;;
20653;SDS011;21083;50.898;4.902;2023-04-03T01:10:19;10.88;;;5.15;;
20653;SDS011;21083;50.898;4.902;2023-04-03T01:12:47;12.73;;;5.35;;
20653;SDS011;21083;50.898;4.902;2023-04-03T01:15:16;15.82;;;5.72;;
20653;SDS011;21083;50.898;4.902;2023-04-03T01:17:46;13.23;;;5.38;;
20653;SDS011;21083;50.898;4.902;2023-04-03T01:23:25;11.23;;;4.70;;
20653;SDS011;21083;50.898;4.902;2023-04-03T01:26:07;10.40;;;5.22;;
20653;SDS011;21083;50.898;4.902;2023-04-03T01:28:37;13.98;;;5.28;;
20653;SDS011;21083;50.898;4.902;2023-04-03T01:31:08;17.48;;;5.80;;
20653;SDS011;21083;50.898;4.902;2023-04-03T01:33:43;10.98;;;5.65;;
20653;SDS011;21083;50.898;4.902;2023-04-03T01:36:13;11.27;;;5.05;;
20653;SDS011;21083;50.898;4.902;2023-04-03T01:38:41;13.57;;;5.20;;
20653;SDS011;21083;50.898;4.902;2023-04-03T01:41:08;10.23;;;5.30;;
20653;SDS011;21083;50.898;4.902;2023-04-03T01:43:35;12.07;;;5.45;;
20653;SDS011;21083;50.898;4.902;2023-04-03T01:46:02;13.68;;;4.93;;
20653;SDS011;21083;50.898;4.902;2023-04-03T01:48:29;13.15;;;5.82;;
20653;SDS011;21083;50.898;4.902;2023-04-03T01:50:59;13.27;;;5.30;;
20653;SDS011;21083;50.898;4.902;2023-04-03T01:53:26;14.48;;;6.00;;
20653;SDS011;21083;50.898;4.902;2023-04-03T01:55:52;10.38;;;4.95;;
20653;SDS011;21083;50.898;4.902;2023-04-03T01:58:20;9.95;;;5.00;;
20653;SDS011;21083;50.898;4.902;2023-04-03T02:00:47;15.77;;;5.70;;
20653;SDS011;21083;50.898;4.902;2023-04-03T02:03:14;9.80;;;4.80;;
20653;SDS011;21083;50.898;4.902;2023-04-03T02:05:41;13.38;;;5.20;;
20653;SDS011;21083;50.898;4.902;2023-04-03T02:08:10;12.27;;;5.18;;
20653;SDS011;21083;50.898;4.902;2023-04-03T02:10:37;13.07;;;5.40;;
20653;SDS011;21083;50.898;4.902;2023-04-03T02:13:03;13.68;;;5.38;;
20653;SDS011;21083;50.898;4.902;2023-04-03T02:15:31;12.98;;;5.32;;
20653;SDS011;21083;50.898;4.902;2023-04-03T02:17:58;12.18;;;5.50;;
20653;SDS011;21083;50.898;4.902;2023-04-03T02:20:25;12.63;;;5.75;;
20653;SDS011;21083;50.898;4.902;2023-04-03T02:22:52;14.00;;;5.50;;
20653;SDS011;21083;50.898;4.902;2023-04-03T02:25:20;11.98;;;5.53;;
20653;SDS011;21083;50.898;4.902;2023-04-03T02:27:47;9.93;;;4.90;;
20653;SDS011;21083;50.898;4.902;2023-04-03T02:30:14;15.85;;;5.45;;
20653;SDS011;21083;50.898;4.902;2023-04-03T02:32:41;12.57;;;5.20;;
20653;SDS011;21083;50.898;4.902;2023-04-03T02:35:08;12.48;;;5.50;;
20653;SDS011;21083;50.898;4.902;2023-04-03T02:37:35;11.93;;;5.30;;
20653;SDS011;21083;50.898;4.902;2023-04-03T02:40:03;10.82;;;5.43;;
20653;SDS011;21083;50.898;4.902;2023-04-03T02:42:32;11.27;;;4.95;;
20653;SDS011;21083;50.898;4.902;2023-04-03T02:44:59;13.43;;;5.40;;
20653;SDS011;21083;50.898;4.902;2023-04-03T02:47:27;12.00;;;5.10;;
20653;SDS011;21083;50.898;4.902;2023-04-03T02:49:56;10.77;;;4.85;;
20653;SDS011;21083;50.898;4.902;2023-04-03T02:52:25;11.18;;;5.10;;
20653;SDS011;21083;50.898;4.902;2023-04-03T02:54:52;11.88;;;5.32;;
20653;SDS011;21083;50.898;4.902;2023-04-03T02:57:20;13.13;;;5.32;;
20653;SDS011;21083;50.898;4.902;2023-04-03T02:59:49;15.20;;;5.55;;
20653;SDS011;21083;50.898;4.902;2023-04-03T03:02:15;14.73;;;5.32;;
20653;SDS011;21083;50.898;4.902;2023-04-03T03:04:42;11.70;;;5.57;;
20653;SDS011;21083;50.898;4.902;2023-04-03T03:07:09;14.02;;;5.65;;
20653;SDS011;21083;50.898;4.902;2023-04-03T03:09:36;13.48;;;5.72;;
20653;SDS011;21083;50.898;4.902;2023-04-03T03:12:03;13.23;;;5.25;;
20653;SDS011;21083;50.898;4.902;2023-04-03T03:14:30;12.43;;;5.45;;
20653;SDS011;21083;50.898;4.902;2023-04-03T03:16:59;15.25;;;5.75;;
20653;SDS011;21083;50.898;4.902;2023-04-03T03:19:27;14.18;;;6.18;;
20653;SDS011;21083;50.898;4.902;2023-04-03T03:21:54;10.63;;;5.90;;
20653;SDS011;21083;50.898;4.902;2023-04-03T03:24:22;11.27;;;5.15;;
20653;SDS011;21083;50.898;4.902;2023-04-03T03:26:51;18.15;;;6.10;;
20653;SDS011;21083;50.898;4.902;2023-04-03T03:29:19;12.10;;;5.53;;
20653;SDS011;21083;50.898;4.902;2023-04-03T03:31:47;15.23;;;5.80;;
20653;SDS011;21083;50.898;4.902;2023-04-03T03:34:16;15.10;;;6.25;;
20653;SDS011;21083;50.898;4.902;2023-04-03T03:36:43;12.98;;;6.40;;
20653;SDS011;21083;50.898;4.902;2023-04-03T03:39:10;12.30;;;6.10;;
20653;SDS011;21083;50.898;4.902;2023-04-03T03:41:37;17.42;;;6.63;;
20653;SDS011;21083;50.898;4.902;2023-04-03T03:44:04;12.15;;;6.13;;
20653;SDS011;21083;50.898;4.902;2023-04-03T03:46:31;15.32;;;6.82;;
20653;SDS011;21083;50.898;4.902;2023-04-03T03:48:58;11.95;;;6.07;;
20653;SDS011;21083;50.898;4.902;2023-04-03T03:51:27;14.63;;;6.43;;
20653;SDS011;21083;50.898;4.902;2023-04-03T03:53:54;13.32;;;6.75;;
20653;SDS011;21083;50.898;4.902;2023-04-03T03:56:21;15.65;;;7.82;;
20653;SDS011;21083;50.898;4.902;2023-04-03T03:58:48;13.57;;;6.45;;
20653;SDS011;21083;50.898;4.902;2023-04-03T04:01:17;11.75;;;6.05;;
20653;SDS011;21083;50.898;4.902;2023-04-03T04:03:44;12.23;;;6.47;;
20653;SDS011;21083;50.898;4.902;2023-04-03T04:06:11;18.60;;;6.35;;
20653;SDS011;21083;50.898;4.902;2023-04-03T04:08:41;14.13;;;6.25;;
20653;SDS011;21083;50.898;4.902;2023-04-03T04:11:09;11.45;;;5.93;;
20653;SDS011;21083;50.898;4.902;2023-04-03T04:13:36;14.90;;;6.57;;
20653;SDS011;21083;50.898;4.902;2023-04-03T04:16:03;14.18;;;6.97;;
20653;SDS011;21083;50.898;4.902;2023-04-03T04:18:31;13.93;;;6.20;;
20653;SDS011;21083;50.898;4.902;2023-04-03T04:21:00;11.90;;;5.82;;
20653;SDS011;21083;50.898;4.902;2023-04-03T04:23:27;14.10;;;6.93;;
20653;SDS011;21083;50.898;4.902;2023-04-03T04:25:55;17.65;;;8.25;;
20653;SDS011;21083;50.898;4.902;2023-04-03T04:28:22;13.85;;;6.68;;
20653;SDS011;21083;50.898;4.902;2023-04-03T04:30:49;13.93;;;6.82;;
20653;SDS011;21083;50.898;4.902;2023-04-03T04:33:16;12.73;;;6.10;;
20653;SDS011;21083;50.898;4.902;2023-04-03T04:35:43;15.27;;;6.82;;
20653;SDS011;21083;50.898;4.902;2023-04-03T04:38:10;13.45;;;6.43;;
20653;SDS011;21083;50.898;4.902;2023-04-03T04:40:37;13.63;;;6.97;;
20653;SDS011;21083;50.898;4.902;2023-04-03T04:43:06;15.40;;;7.38;;
20653;SDS011;21083;50.898;4.902;2023-04-03T04:45:33;12.18;;;6.55;;
20653;SDS011;21083;50.898;4.902;2023-04-03T04:48:00;15.30;;;7.78;;
20653;SDS011;21083;50.898;4.902;2023-04-03T04:50:27;16.30;;;7.25;;
20653;SDS011;21083;50.898;4.902;2023-04-03T04:52:54;14.48;;;7.38;;
20653;SDS011;21083;50.898;4.902;2023-04-03T04:55:20;15.43;;;7.18;;
20653;SDS011;21083;50.898;4.902;2023-04-03T04:57:47;16.60;;;6.65;;
20653;SDS011;21083;50.898;4.902;2023-04-03T05:00:16;14.75;;;7.07;;
20653;SDS011;21083;50.898;4.902;2023-04-03T05:02:44;16.27;;;7.32;;
20653;SDS011;21083;50.898;4.902;2023-04-03T05:05:11;15.82;;;7.47;;
20653;SDS011;21083;50.898;4.902;2023-04-03T05:07:38;13.95;;;7.45;;
20653;SDS011;21083;50.898;4.902;2023-04-03T05:10:06;17.38;;;8.18;;
20653;SDS011;21083;50.898;4.902;2023-04-03T05:12:34;15.20;;;7.00;;
20653;SDS011;21083;50.898;4.902;2023-04-03T05:15:01;18.80;;;7.90;;
20653;SDS011;21083;50.898;4.902;2023-04-03T05:17:29;18.58;;;8.25;;
20653;SDS011;21083;50.898;4.902;2023-04-03T05:19:56;18.10;;;7.80;;
20653;SDS011;21083;50.898;4.902;2023-04-03T05:22:23;15.27;;;7.72;;
20653;SDS011;21083;50.898;4.902;2023-04-03T05:24:50;18.15;;;8.27;;
20653;SDS011;21083;50.898;4.902;2023-04-03T05:27:17;18.42;;;8.35;;
20653;SDS011;21083;50.898;4.902;2023-04-03T05:29:44;19.08;;;7.93;;
20653;SDS011;21083;50.898;4.902;2023-04-03T05:32:11;18.27;;;8.10;;
20653;SDS011;21083;50.898;4.902;2023-04-03T05:34:39;15.50;;;8.80;;
20653;SDS011;21083;50.898;4.902;2023-04-03T05:37:06;19.52;;;9.90;;
20653;SDS011;21083;50.898;4.902;2023-04-03T05:39:33;17.58;;;8.20;;
20653;SDS011;21083;50.898;4.902;2023-04-03T05:42:01;14.48;;;8.45;;
20653;SDS011;21083;50.898;4.902;2023-04-03T05:44:28;16.38;;;9.07;;
20653;SDS011;21083;50.898;4.902;2023-04-03T05:46:55;20.40;;;9.50;;
20653;SDS011;21083;50.898;4.902;2023-04-03T05:49:22;17.13;;;8.95;;
20653;SDS011;21083;50.898;4.902;2023-04-03T05:51:50;17.27;;;9.27;;
20653;SDS011;21083;50.898;4.902;2023-04-03T05:54:18;19.58;;;9.25;;
20653;SDS011;21083;50.898;4.902;2023-04-03T05:56:50;22.98;;;10.25;;
20653;SDS011;21083;50.898;4.902;2023-04-03T05:59:19;20.42;;;10.43;;
20653;SDS011;21083;50.898;4.902;2023-04-03T06:01:48;20.05;;;10.10;;
20653;SDS011;21083;50.898;4.902;2023-04-03T06:04:15;19.77;;;9.85;;
20653;SDS011;21083;50.898;4.902;2023-04-03T06:06:43;24.90;;;10.63;;
20653;SDS011;21083;50.898;4.902;2023-04-03T06:09:12;23.80;;;11.13;;
20653;SDS011;21083;50.898;4.902;2023-04-03T06:11:40;25.60;;;12.43;;
20653;SDS011;21083;50.898;4.902;2023-04-03T06:14:08;25.60;;;11.95;;
20653;SDS011;21083;50.898;4.902;2023-04-03T06:16:35;20.80;;;12.02;;
20653;SDS011;21083;50.898;4.902;2023-04-03T06:19:03;23.88;;;12.85;;
20653;SDS011;21083;50.898;4.902;2023-04-03T06:21:31;27.67;;;13.05;;
20653;SDS011;21083;50.898;4.902;2023-04-03T06:23:59;22.05;;;12.45;;
20653;SDS011;21083;50.898;4.902;2023-04-03T06:26:27;24.60;;;12.48;;
20653;SDS011;21083;50.898;4.902;2023-04-03T06:28:54;24.77;;;13.02;;
20653;SDS011;21083;50.898;4.902;2023-04-03T06:31:22;24.05;;;12.70;;
20653;SDS011;21083;50.898;4.902;2023-04-03T06:33:49;26.30;;;12.63;;
20653;SDS011;21083;50.898;4.902;2023-04-03T06:36:17;23.60;;;12.18;;
20653;SDS011;21083;50.898;4.902;2023-04-03T06:38:46;23.77;;;12.50;;
20653;SDS011;21083;50.898;4.902;2023-04-03T06:41:13;25.33;;;12.45;;
20653;SDS011;21083;50.898;4.902;2023-04-03T06:43:43;23.70;;;12.73;;
20653;SDS011;21083;50.898;4.902;2023-04-03T06:46:12;23.15;;;11.70;;
20653;SDS011;21083;50.898;4.902;2023-04-03T06:48:41;20.27;;;11.10;;
20653;SDS011;21083;50.898;4.902;2023-04-03T06:51:13;23.65;;;12.70;;
20653;SDS011;21083;50.898;4.902;2023-04-03T06:53:44;26.08;;;12.00;;
20653;SDS011;21083;50.898;4.902;2023-04-03T06:56:12;24.70;;;11.40;;
20653;SDS011;21083;50.898;4.902;2023-04-03T06:58:39;23.23;;;10.95;;
20653;SDS011;21083;50.898;4.902;2023-04-03T07:01:08;17.73;;;9.65;;
20653;SDS011;21083;50.898;4.902;2023-04-03T07:03:35;18.17;;;9.52;;
20653;SDS011;21083;50.898;4.902;2023-04-03T07:06:03;18.85;;;10.57;;
20653;SDS011;21083;50.898;4.902;2023-04-03T07:08:30;22.38;;;10.23;;
20653;SDS011;21083;50.898;4.902;2023-04-03T07:10:57;19.20;;;8.88;;
20653;SDS011;21083;50.898;4.902;2023-04-03T07:13:24;16.75;;;9.52;;
20653;SDS011;21083;50.898;4.902;2023-04-03T07:15:51;17.70;;;8.85;;
20653;SDS011;21083;50.898;4.902;2023-04-03T07:18:20;18.55;;;9.48;;
20653;SDS011;21083;50.898;4.902;2023-04-03T07:20:47;20.63;;;8.52;;
20653;SDS011;21083;50.898;4.902;2023-04-03T07:23:15;20.27;;;8.43;;
20653;SDS011;21083;50.898;4.902;2023-04-03T07:25:42;22.00;;;7.82;;
20653;SDS011;21083;50.898;4.902;2023-04-03T07:28:10;15.82;;;7.63;;
20653;SDS011;21083;50.898;4.902;2023-04-03T07:30:41;18.42;;;9.88;;
20653;SDS011;21083;50.898;4.902;2023-04-03T07:33:10;18.25;;;6.88;;
20653;SDS011;21083;50.898;4.902;2023-04-03T07:35:39;15.57;;;6.63;;
20653;SDS011;21083;50.898;4.902;2023-04-03T07:38:07;17.20;;;7.05;;
20653;SDS011;21083;50.898;4.902;2023-04-03T07:40:35;12.25;;;5.80;;
20653;SDS011;21083;50.898;4.902;2023-04-03T07:43:02;15.07;;;6.38;;
20653;SDS011;21083;50.898;4.902;2023-04-03T07:45:30;14.88;;;6.35;;
20653;SDS011;21083;50.898;4.902;2023-04-03T07:47:58;11.48;;;5.38;;
20653;SDS011;21083;50.898;4.902;2023-04-03T07:50:25;13.93;;;6.40;;
20653;SDS011;21083;50.898;4.902;2023-04-03T07:52:53;14.07;;;5.55;;
20653;SDS011;21083;50.898;4.902;2023-04-03T07:55:21;14.98;;;6.07;;
20653;SDS011;21083;50.898;4.902;2023-04-03T07:57:48;14.23;;;5.75;;
20653;SDS011;21083;50.898;4.902;2023-04-03T08:00:16;14.70;;;5.68;;
20653;SDS011;21083;50.898;4.902;2023-04-03T08:02:44;17.17;;;5.82;;
20653;SDS011;21083;50.898;4.902;2023-04-03T08:05:15;11.02;;;4.65;;
20653;SDS011;21083;50.898;4.902;2023-04-03T08:07:42;13.63;;;5.93;;
20653;SDS011;21083;50.898;4.902;2023-04-03T08:10:10;14.13;;;4.88;;
20653;SDS011;21083;50.898;4.902;2023-04-03T08:12:38;13.10;;;5.05;;
20653;SDS011;21083;50.898;4.902;2023-04-03T08:15:05;13.07;;;4.90;;
20653;SDS011;21083;50.898;4.902;2023-04-03T08:17:35;11.85;;;4.43;;
20653;SDS011;21083;50.898;4.902;2023-04-03T08:20:04;16.38;;;4.60;;
20653;SDS011;21083;50.898;4.902;2023-04-03T08:22:34;12.00;;;4.20;;
20653;SDS011;21083;50.898;4.902;2023-04-03T08:25:01;14.45;;;4.78;;
20653;SDS011;21083;50.898;4.902;2023-04-03T08:27:29;13.27;;;4.40;;
20653;SDS011;21083;50.898;4.902;2023-04-03T08:29:56;12.20;;;4.40;;
20653;SDS011;21083;50.898;4.902;2023-04-03T08:32:24;13.15;;;4.43;;
20653;SDS011;21083;50.898;4.902;2023-04-03T08:34:53;15.60;;;4.07;;
20653;SDS011;21083;50.898;4.902;2023-04-03T08:37:21;12.15;;;4.07;;
20653;SDS011;21083;50.898;4.902;2023-04-03T08:39:50;12.00;;;3.70;;
20653;SDS011;21083;50.898;4.902;2023-04-03T08:42:19;11.23;;;3.92;;
20653;SDS011;21083;50.898;4.902;2023-04-03T08:44:59;15.77;;;4.38;;
20653;SDS011;21083;50.898;4.902;2023-04-03T08:47:34;11.48;;;4.00;;
20653;SDS011;21083;50.898;4.902;2023-04-03T08:50:10;9.77;;;3.60;;
20653;SDS011;21083;50.898;4.902;2023-04-03T08:52:40;12.98;;;4.85;;
20653;SDS011;21083;50.898;4.902;2023-04-03T08:55:14;12.02;;;3.28;;
20653;SDS011;21083;50.898;4.902;2023-04-03T08:57:48;12.38;;;3.97;;
20653;SDS011;21083;50.898;4.902;2023-04-03T09:00:20;12.30;;;3.90;;
20653;SDS011;21083;50.898;4.902;2023-04-03T09:02:51;22.58;;;5.03;;
20653;SDS011;21083;50.898;4.902;2023-04-03T09:05:24;9.15;;;3.67;;
20653;SDS011;21083;50.898;4.902;2023-04-03T09:08:02;13.95;;;4.00;;
20653;SDS011;21083;50.898;4.902;2023-04-03T09:10:34;12.60;;;3.92;;
20653;SDS011;21083;50.898;4.902;2023-04-03T09:13:06;13.93;;;3.88;;
20653;SDS011;21083;50.898;4.902;2023-04-03T09:15:40;12.18;;;3.85;;
20653;SDS011;21083;50.898;4.902;2023-04-03T09:18:11;12.93;;;3.90;;
20653;SDS011;21083;50.898;4.902;2023-04-03T09:20:45;9.48;;;3.53;;
20653;SDS011;21083;50.898;4.902;2023-04-03T09:23:19;9.38;;;3.20;;
20653;SDS011;21083;50.898;4.902;2023-04-03T09:25:52;7.22;;;2.90;;
20653;SDS011;21083;50.898;4.902;2023-04-03T09:28:24;10.25;;;3.42;;
20653;SDS011;21083;50.898;4.902;2023-04-03T09:30:53;12.93;;;3.45;;
20653;SDS011;21083;50.898;4.902;2023-04-03T09:33:20;12.25;;;3.15;;
20653;SDS011;21083;50.898;4.902;2023-04-03T09:35:48;8.57;;;2.95;;
20653;SDS011;21083;50.898;4.902;2023-04-03T09:38:17;10.43;;;2.90;;
20653;SDS011;21083;50.898;4.902;2023-04-03T09:40:46;8.90;;;2.38;;
20653;SDS011;21083;50.898;4.902;2023-04-03T09:43:24;9.18;;;2.78;;
20653;SDS011;21083;50.898;4.902;2023-04-03T09:45:54;7.95;;;2.72;;
20653;SDS011;21083;50.898;4.902;2023-04-03T09:48:23;10.52;;;2.97;;
20653;SDS011;21083;50.898;4.902;2023-04-03T09:50:55;7.82;;;2.25;;
20653;SDS011;21083;50.898;4.902;2023-04-03T09:53:32;12.48;;;3.22;;
20653;SDS011;21083;50.898;4.902;2023-04-03T09:56:03;12.23;;;2.60;;
20653;SDS011;21083;50.898;4.902;2023-04-03T09:58:32;10.93;;;3.55;;
20653;SDS011;21083;50.898;4.902;2023-04-03T10:01:09;11.68;;;3.20;;
20653;SDS011;21083;50.898;4.902;2023-04-03T10:04:02;15.30;;;2.97;;
20653;SDS011;21083;50.898;4.902;2023-04-03T10:06:35;9.52;;;2.53;;
20653;SDS011;21083;50.898;4.902;2023-04-03T10:09:13;8.05;;;2.40;;
20653;SDS011;21083;50.898;4.902;2023-04-03T10:11:59;8.45;;;2.80;;
20653;SDS011;21083;50.898;4.902;2023-04-03T10:14:32;14.95;;;2.95;;
20653;SDS011;21083;50.898;4.902;2023-04-03T10:17:13;9.10;;;3.00;;
20653;SDS011;21083;50.898;4.902;2023-04-03T10:19:45;8.65;;;2.22;;
20653;SDS011;21083;50.898;4.902;2023-04-03T10:22:18;10.85;;;2.85;;
20653;SDS011;21083;50.898;4.902;2023-04-03T10:24:51;9.00;;;2.38;;
20653;SDS011;21083;50.898;4.902;2023-04-03T10:27:26;9.05;;;2.13;;
20653;SDS011;21083;50.898;4.902;2023-04-03T10:30:04;7.68;;;1.65;;
20653;SDS011;21083;50.898;4.902;2023-04-03T10:32:44;9.85;;;2.25;;
20653;SDS011;21083;50.898;4.902;2023-04-03T10:35:21;8.93;;;2.05;;
20653;SDS011;21083;50.898;4.902;2023-04-03T10:38:01;9.60;;;2.05;;
20653;SDS011;21083;50.898;4.902;2023-04-03T10:40:34;8.05;;;1.90;;
20653;SDS011;21083;50.898;4.902;2023-04-03T10:43:09;6.20;;;1.90;;
20653;SDS011;21083;50.898;4.902;2023-04-03T10:45:49;6.07;;;1.70;;
20653;SDS011;21083;50.898;4.902;2023-04-03T10:48:26;14.05;;;2.22;;
20653;SDS011;21083;50.898;4.902;2023-04-03T10:51:05;5.40;;;1.73;;
20653;SDS011;21083;50.898;4.902;2023-04-03T10:53:44;9.90;;;3.58;;
20653;SDS011;21083;50.898;4.902;2023-04-03T10:56:15;9.55;;;2.30;;
20653;SDS011;21083;50.898;4.902;2023-04-03T10:58:48;7.55;;;2.60;;
20653;SDS011;21083;50.898;4.902;2023-04-03T11:01:20;10.27;;;2.08;;
20653;SDS011;21083;50.898;4.902;2023-04-03T11:03:52;6.15;;;1.98;;
20653;SDS011;21083;50.898;4.902;2023-04-03T11:06:22;6.50;;;2.10;;
20653;SDS011;21083;50.898;4.902;2023-04-03T11:08:55;7.20;;;1.80;;
20653;SDS011;21083;50.898;4.902;2023-04-03T11:11:29;8.52;;;1.98;;
20653;SDS011;21083;50.898;4.902;2023-04-03T11:14:00;7.88;;;1.58;;
20653;SDS011;21083;50.898;4.902;2023-04-03T11:16:31;9.82;;;1.73;;
20653;SDS011;21083;50.898;4.902;2023-04-03T11:19:04;6.55;;;2.47;;
20653;SDS011;21083;50.898;4.902;2023-04-03T11:21:39;13.30;;;3.08;;
20653;SDS011;21083;50.898;4.902;2023-04-03T11:24:11;6.85;;;2.20;;
20653;SDS011;21083;50.898;4.902;2023-04-03T11:26:46;5.85;;;1.33;;
20653;SDS011;21083;50.898;4.902;2023-04-03T11:29:18;7.70;;;2.00;;
20653;SDS011;21083;50.898;4.902;2023-04-03T11:31:55;6.30;;;1.70;;
20653;SDS011;21083;50.898;4.902;2023-04-03T11:34:35;8.27;;;1.60;;
20653;SDS011;21083;50.898;4.902;2023-04-03T11:37:11;8.70;;;1.90;;
20653;SDS011;21083;50.898;4.902;2023-04-03T11:39:46;6.65;;;1.75;;
20653;SDS011;21083;50.898;4.902;2023-04-03T11:42:24;5.13;;;1.40;;
20653;SDS011;21083;50.898;4.902;2023-04-03T11:45:17;7.75;;;2.75;;
20653;SDS011;21083;50.898;4.902;2023-04-03T11:47:52;7.45;;;2.85;;
20653;SDS011;21083;50.898;4.902;2023-04-03T11:50:37;4.82;;;1.60;;
20653;SDS011;21083;50.898;4.902;2023-04-03T11:56:04;9.27;;;4.60;;
20653;SDS011;21083;50.898;4.902;2023-04-03T12:01:50;6.60;;;1.58;;
20653;SDS011;21083;50.898;4.902;2023-04-03T12:04:19;5.70;;;1.10;;
20653;SDS011;21083;50.898;4.902;2023-04-03T12:12:42;4.93;;;1.30;;
20653;SDS011;21083;50.898;4.902;2023-04-03T12:21:16;3.17;;;0.98;;
20653;SDS011;21083;50.898;4.902;2023-04-03T12:23:59;2.25;;;0.98;;
20653;SDS011;21083;50.898;4.902;2023-04-03T12:26:30;5.97;;;1.17;;
20653;SDS011;21083;50.898;4.902;2023-04-03T12:29:01;6.30;;;1.30;;
20653;SDS011;21083;50.898;4.902;2023-04-03T12:31:40;3.45;;;1.02;;
20653;SDS011;21083;50.898;4.902;2023-04-03T12:34:15;4.60;;;1.08;;
20653;SDS011;21083;50.898;4.902;2023-04-03T12:36:52;7.28;;;1.20;;
20653;SDS011;21083;50.898;4.902;2023-04-03T12:39:39;6.60;;;1.88;;
20653;SDS011;21083;50.898;4.902;2023-04-03T12:42:29;3.30;;;1.30;;
20653;SDS011;21083;50.898;4.902;2023-04-03T12:45:24;7.32;;;1.50;;
20653;SDS011;21083;50.898;4.902;2023-04-03T12:47:52;5.07;;;1.40;;
20653;SDS011;21083;50.898;4.902;2023-04-03T12:50:22;6.70;;;1.33;;
20653;SDS011;21083;50.898;4.902;2023-04-03T12:53:00;3.80;;;1.20;;
20653;SDS011;21083;50.898;4.902;2023-04-03T12:55:31;5.70;;;1.35;;
20653;SDS011;21083;50.898;4.902;2023-04-03T12:58:12;5.50;;;1.30;;
20653;SDS011;21083;50.898;4.902;2023-04-03T13:00:41;5.93;;;1.20;;
20653;SDS011;21083;50.898;4.902;2023-04-03T13:03:18;4.72;;;1.40;;
20653;SDS011;21083;50.898;4.902;2023-04-03T13:05:49;5.80;;;1.40;;
20653;SDS011;21083;50.898;4.902;2023-04-03T13:08:16;7.53;;;1.52;;
20653;SDS011;21083;50.898;4.902;2023-04-03T13:10:52;4.57;;;1.30;;
20653;SDS011;21083;50.898;4.902;2023-04-03T13:13:22;7.47;;;1.42;;
20653;SDS011;21083;50.898;4.902;2023-04-03T13:15:51;11.07;;;1.48;;
20653;SDS011;21083;50.898;4.902;2023-04-03T13:18:27;5.78;;;1.50;;
20653;SDS011;21083;50.898;4.902;2023-04-03T13:20:58;3.80;;;1.08;;
20653;SDS011;21083;50.898;4.902;2023-04-03T13:23:29;5.70;;;1.10;;
20653;SDS011;21083;50.898;4.902;2023-04-03T13:25:58;8.60;;;1.38;;
20653;SDS011;21083;50.898;4.902;2023-04-03T13:28:29;5.90;;;1.20;;
20653;SDS011;21083;50.898;4.902;2023-04-03T13:31:01;5.57;;;1.40;;
20653;SDS011;21083;50.898;4.902;2023-04-03T13:33:32;10.48;;;1.73;;
20653;SDS011;21083;50.898;4.902;2023-04-03T13:36:03;3.22;;;1.20;;
20653;SDS011;21083;50.898;4.902;2023-04-03T13:38:32;4.00;;;1.35;;
20653;SDS011;21083;50.898;4.902;2023-04-03T13:41:04;4.68;;;1.23;;
20653;SDS011;21083;50.898;4.902;2023-04-03T13:43:47;5.72;;;1.58;;
20653;SDS011;21083;50.898;4.902;2023-04-03T13:46:25;6.30;;;1.20;;
20653;SDS011;21083;50.898;4.902;2023-04-03T13:48:53;5.40;;;1.45;;
20653;SDS011;21083;50.898;4.902;2023-04-03T13:51:23;5.70;;;1.20;;
20653;SDS011;21083;50.898;4.902;2023-04-03T13:53:52;3.95;;;1.10;;
20653;SDS011;21083;50.898;4.902;2023-04-03T13:56:31;8.15;;;1.25;;
20653;SDS011;21083;50.898;4.902;2023-04-03T13:59:06;7.93;;;1.83;;
20653;SDS011;21083;50.898;4.902;2023-04-03T14:01:48;7.22;;;1.50;;
20653;SDS011;21083;50.898;4.902;2023-04-03T14:04:19;4.72;;;1.55;;
20653;SDS011;21083;50.898;4.902;2023-04-03T14:06:49;6.03;;;1.40;;
20653;SDS011;21083;50.898;4.902;2023-04-03T14:09:16;7.68;;;1.48;;
20653;SDS011;21083;50.898;4.902;2023-04-03T14:11:46;6.35;;;1.52;;
20653;SDS011;21083;50.898;4.902;2023-04-03T14:14:15;7.95;;;1.50;;
20653;SDS011;21083;50.898;4.902;2023-04-03T14:16:46;5.03;;;1.67;;
20653;SDS011;21083;50.898;4.902;2023-04-03T14:19:20;6.20;;;1.50;;
20653;SDS011;21083;50.898;4.902;2023-04-03T14:21:49;6.53;;;1.65;;
20653;SDS011;21083;50.898;4.902;2023-04-03T14:24:17;5.53;;;1.40;;
20653;SDS011;21083;50.898;4.902;2023-04-03T14:26:46;8.63;;;1.98;;
20653;SDS011;21083;50.898;4.902;2023-04-03T14:29:15;6.72;;;1.75;;
20653;SDS011;21083;50.898;4.902;2023-04-03T14:31:42;7.85;;;1.83;;
20653;SDS011;21083;50.898;4.902;2023-04-03T14:34:10;11.38;;;1.60;;
20653;SDS011;21083;50.898;4.902;2023-04-03T14:36:38;6.07;;;1.55;;
20653;SDS011;21083;50.898;4.902;2023-04-03T14:39:09;6.78;;;1.63;;
20653;SDS011;21083;50.898;4.902;2023-04-03T14:41:43;4.10;;;1.23;;
20653;SDS011;21083;50.898;4.902;2023-04-03T14:44:12;5.82;;;1.83;;
20653;SDS011;21083;50.898;4.902;2023-04-03T14:46:40;6.65;;;1.80;;
20653;SDS011;21083;50.898;4.902;2023-04-03T14:49:10;7.38;;;1.92;;
20653;SDS011;21083;50.898;4.902;2023-04-03T14:51:40;10.18;;;2.00;;
20653;SDS011;21083;50.898;4.902;2023-04-03T14:54:10;9.02;;;2.08;;
20653;SDS011;21083;50.898;4.902;2023-04-03T14:56:39;10.80;;;2.33;;
20653;SDS011;21083;50.898;4.902;2023-04-03T14:59:08;4.35;;;1.50;;
20653;SDS011;21083;50.898;4.902;2023-04-03T15:01:38;6.93;;;1.73;;
20653;SDS011;21083;50.898;4.902;2023-04-03T15:04:09;6.35;;;1.60;;
20653;SDS011;21083;50.898;4.902;2023-04-03T15:06:38;6.68;;;1.55;;
20653;SDS011;21083;50.898;4.902;2023-04-03T15:09:05;7.63;;;2.17;;
20653;SDS011;21083;50.898;4.902;2023-04-03T15:11:43;6.93;;;1.80;;
20653;SDS011;21083;50.898;4.902;2023-04-03T15:14:10;4.97;;;1.83;;
20653;SDS011;21083;50.898;4.902;2023-04-03T15:16:38;6.65;;;1.90;;
20653;SDS011;21083;50.898;4.902;2023-04-03T15:19:06;9.27;;;1.92;;